Time,TemperatureF,DewpointF,PressureIn,WindDirection,WindDirectionDegrees,WindSpeedMPH,WindSpeedGustMPH,Humidity,HourlyPrecipIn,Conditions,Clouds,dailyrainin,SolarRadiationWatts/m^2,SoftwareType,DateUTC
2013-01-18 00:08:00,40.3,9.3,29.78,NNE,22,0.0,0.0,14,0.00,,,-99.99,0.0,Linux-Irox,2013-01-18 08:08:00,
2013-01-18 00:18:00,40.1,8.1,29.78,NE,45,0.0,0.0,11,0.00,,,-99.99,0.0,Linux-Irox,2013-01-18 08:18:00,
2013-01-18 00:28:00,39.9,7.9,29.78,NE,45,0.0,0.0,11,0.00,,,-99.99,0.0,Linux-Irox,2013-01-18 08:28:00,
2013-01-18 00:38:00,39.6,7.5,29.78,NNE,22,0.0,0.0,11,0.00,,,-99.99,0.0,Linux-Irox,2013-01-18 08:38:00,
2013-01-18 00:48:00,39.4,7.3,29.78,ENE,67,0.0,0.0,11,0.00,,,-99.99,0.0,Linux-Irox,2013-01-18 08:48:00,
2013-01-18 00:58:00,39.2,7.2,29.77,NE,45,0.0,0.0,11,0.00,,,-99.99,0.0,Linux-Irox,2013-01-18 08:58:00,
2013-01-18 01:08:00,38.7,7.0,29.77,NE,45,0.0,0.0,12,0.00,,,-99.99,0.0,Linux-Irox,2013-01-18 09:08:00,
2013-01-18 01:18:00,39.4,7.3,29.78,NNE,22,0.0,0.0,11,0.00,,,-99.99,0.0,Linux-Irox,2013-01-18 09:18:00,
2013-01-18 01:28:00,39.4,7.3,29.78,NE,45,0.0,0.0,11,0.00,,,-99.99,0.0,Linux-Irox,2013-01-18 09:28:00,
2013-01-18 01:38:00,39.4,7.3,29.78,NNE,22,0.0,0.0,11,0.00,,,-99.99,0.0,Linux-Irox,2013-01-18 09:38:00,
2013-01-18 01:48:00,39.4,7.3,29.78,NNE,22,0.0,0.0,11,0.00,,,-99.99,0.0,Linux-Irox,2013-01-18 09:48:00,
2013-01-18 01:58:00,39.6,7.5,29.78,NNE,22,0.0,0.0,11,0.00,,,-99.99,0.0,Linux-Irox,2013-01-18 09:58:00,
2013-01-18 02:08:00,39.6,7.5,29.78,NE,45,0.0,0.0,11,0.00,,,-99.99,0.0,Linux-Irox,2013-01-18 10:08:00,
2013-01-18 02:18:00,39.4,7.3,29.78,NNE,22,0.0,0.0,11,0.00,,,-99.99,0.0,Linux-Irox,2013-01-18 10:18:00,
2013-01-18 02:28:00,39.4,7.3,29.78,NNE,22,0.0,0.0,11,0.00,,,-99.99,0.0,Linux-Irox,2013-01-18 10:28:00,
2013-01-18 02:38:00,39.4,7.3,29.77,NNE,22,0.0,0.0,11,0.00,,,-99.99,0.0,Linux-Irox,2013-01-18 10:38:00,
2013-01-18 02:48:00,39.4,7.3,29.77,NNE,22,0.2,0.9,11,0.00,,,-99.99,0.0,Linux-Irox,2013-01-18 10:48:00,
2013-01-18 02:58:00,39.6,7.5,29.77,NNE,22,0.0,1.1,11,0.00,,,-99.99,0.0,Linux-Irox,2013-01-18 10:58:00,
2013-01-18 03:08:00,39.4,7.3,29.77,NNE,22,0.0,0.0,11,0.00,,,-99.99,0.0,Linux-Irox,2013-01-18 11:08:00,
2013-01-18 03:18:00,39.2,7.2,29.77,NNE,22,0.2,0.0,11,0.00,,,-99.99,0.0,Linux-Irox,2013-01-18 11:18:00,
2013-01-18 03:28:00,39.2,7.2,29.77,NNE,22,0.0,0.0,11,0.00,,,-99.99,0.0,Linux-Irox,2013-01-18 11:28:00,
2013-01-18 03:38:00,39.2,7.2,29.77,NNE,22,0.0,0.0,11,0.00,,,-99.99,0.0,Linux-Irox,2013-01-18 11:38:00,
2013-01-18 03:48:00,39.2,7.2,29.77,NNE,22,0.0,0.0,11,0.00,,,-99.99,0.0,Linux-Irox,2013-01-18 11:48:00,
2013-01-18 03:58:00,39.0,7.3,29.77,NNE,22,0.2,0.9,12,0.00,,,-99.99,0.0,Linux-Irox,2013-01-18 11:58:00,
2013-01-18 04:08:00,39.2,7.2,29.77,NNE,22,0.4,0.0,11,0.00,,,-99.99,0.0,Linux-Irox,2013-01-18 12:08:00,
2013-01-18 04:18:00,39.2,7.2,29.77,NNE,22,0.0,0.0,11,0.00,,,-99.99,0.0,Linux-Irox,2013-01-18 12:18:00,
2013-01-18 04:28:00,38.7,7.0,29.77,NNE,22,0.0,0.0,12,0.00,,,-99.99,0.0,Linux-Irox,2013-01-18 12:28:00,
2013-01-18 04:38:00,39.0,7.3,29.77,NNE,22,0.2,0.0,12,0.00,,,-99.99,0.0,Linux-Irox,2013-01-18 12:38:00,
2013-01-18 04:48:00,38.8,7.2,29.77,NNE,22,0.0,0.0,12,0.00,,,-99.99,0.0,Linux-Irox,2013-01-18 12:48:00,
2013-01-18 04:58:00,38.8,7.2,29.77,NNE,22,0.2,0.0,12,0.00,,,-99.99,0.0,Linux-Irox,2013-01-18 12:58:00,
2013-01-18 05:08:00,38.8,7.2,29.77,NE,45,0.0,0.0,12,0.00,,,-99.99,0.0,Linux-Irox,2013-01-18 13:08:00,
2013-01-18 05:18:00,38.8,7.2,29.77,North,0,0.2,0.0,12,0.00,,,-99.99,0.0,Linux-Irox,2013-01-18 13:18:00,
2013-01-18 05:28:00,39.4,7.3,29.77,NNE,22,0.2,1.1,11,0.00,,,-99.99,0.0,Linux-Irox,2013-01-18 13:28:00,
2013-01-18 05:38:00,40.1,8.1,29.76,North,0,0.2,0.0,11,0.00,,,-99.99,0.0,Linux-Irox,2013-01-18 13:38:00,
2013-01-18 05:48:00,39.9,7.9,29.76,NNE,22,0.2,0.0,11,0.00,,,-99.99,0.0,Linux-Irox,2013-01-18 13:48:00,
2013-01-18 05:58:00,39.6,7.5,29.76,NNE,22,0.2,1.1,11,0.00,,,-99.99,0.0,Linux-Irox,2013-01-18 13:58:00,
2013-01-18 06:01:00,39.6,7.5,29.76,North,0,0.7,2.5,11,0.00,,,-99.99,0.0,Linux-Irox,2013-01-18 14:01:00,
2013-01-18 06:08:00,39.6,7.5,29.76,NNW,337,0.2,0.0,11,0.00,,,-99.99,0.0,Linux-Irox,2013-01-18 14:08:00,
2013-01-18 06:16:00,39.2,7.2,29.76,North,0,0.4,2.9,11,0.00,,,-99.99,0.0,Linux-Irox,2013-01-18 14:16:00,
2013-01-18 06:18:00,39.2,7.2,29.76,NNW,337,0.0,0.0,11,0.00,,,-99.99,0.0,Linux-Irox,2013-01-18 14:18:00,
2013-01-18 06:28:00,39.4,7.3,29.76,NNE,22,0.0,0.0,11,0.00,,,-99.99,0.0,Linux-Irox,2013-01-18 14:28:00,
2013-01-18 06:31:00,39.4,7.3,29.76,NNW,337,0.4,2.5,11,0.00,,,-99.99,0.0,Linux-Irox,2013-01-18 14:31:00,
2013-01-18 06:38:00,39.4,7.3,29.76,NNE,22,0.2,0.0,11,0.00,,,-99.99,0.0,Linux-Irox,2013-01-18 14:38:00,
2013-01-18 06:46:00,38.8,7.2,29.76,NNE,22,0.7,3.3,12,0.00,,,-99.99,0.0,Linux-Irox,2013-01-18 14:46:00,
2013-01-18 06:48:00,38.8,7.2,29.76,NNE,22,0.2,0.0,12,0.00,,,-99.99,0.0,Linux-Irox,2013-01-18 14:48:00,
2013-01-18 06:58:00,38.7,7.0,29.77,NNE,22,0.2,1.1,12,0.00,,,-99.99,0.0,Linux-Irox,2013-01-18 14:58:00,
2013-01-18 07:01:00,38.7,7.0,29.77,NNE,22,0.9,0.0,12,0.00,,,-99.99,0.0,Linux-Irox,2013-01-18 15:01:00,
2013-01-18 07:08:00,38.8,7.2,29.77,NNE,22,0.2,0.0,12,0.00,,,-99.99,0.0,Linux-Irox,2013-01-18 15:08:00,
2013-01-18 07:16:00,38.8,7.2,29.77,NNW,337,0.9,2.5,12,0.00,,,-99.99,0.0,Linux-Irox,2013-01-18 15:16:00,
2013-01-18 07:18:00,38.8,7.2,29.77,NNE,22,0.4,0.0,12,0.00,,,-99.99,0.0,Linux-Irox,2013-01-18 15:18:00,
2013-01-18 07:28:00,38.8,7.2,29.77,NNE,22,0.4,1.1,12,0.00,,,-99.99,0.0,Linux-Irox,2013-01-18 15:28:00,
2013-01-18 07:31:00,38.8,7.2,29.77,NNE,22,1.1,0.0,12,0.00,,,-99.99,0.0,Linux-Irox,2013-01-18 15:31:00,
2013-01-18 07:38:00,39.2,7.2,29.78,NNE,22,0.2,0.0,11,0.00,,,-99.99,0.0,Linux-Irox,2013-01-18 15:38:00,
2013-01-18 07:46:00,39.4,7.3,29.78,NNE,22,0.2,0.0,11,0.00,,,-99.99,0.0,Linux-Irox,2013-01-18 15:46:00,
2013-01-18 07:48:00,39.4,7.3,29.78,NNE,22,0.0,0.0,11,0.00,,,-99.99,0.0,Linux-Irox,2013-01-18 15:48:00,
2013-01-18 07:58:00,40.6,8.6,29.78,NNE,22,0.0,0.0,11,0.00,,,-99.99,0.0,Linux-Irox,2013-01-18 15:58:00,
2013-01-18 08:01:00,40.8,8.8,29.78,NNE,22,0.0,0.0,11,0.00,,,-99.99,0.0,Linux-Irox,2013-01-18 16:01:00,
2013-01-18 08:16:00,42.1,10.0,29.78,ENE,67,0.0,0.0,11,0.00,,,-99.99,0.0,Linux-Irox,2013-01-18 16:16:00,
2013-01-18 08:31:00,43.9,11.8,29.78,ENE,67,0.0,0.0,11,0.00,,,-99.99,0.0,Linux-Irox,2013-01-18 16:31:00,
2013-01-18 08:46:00,46.6,14.2,29.79,East,90,0.0,0.0,10,0.00,,,-99.99,0.0,Linux-Irox,2013-01-18 16:46:00,
2013-01-18 09:01:00,49.5,17.1,29.79,East,90,0.4,0.0,10,0.00,,,-99.99,0.0,Linux-Irox,2013-01-18 17:01:00,
2013-01-18 09:16:00,52.0,18.9,29.79,ESE,112,0.4,0.0,8,0.00,,,-99.99,0.0,Linux-Irox,2013-01-18 17:16:00,
2013-01-18 09:31:00,54.7,20.8,29.80,ENE,67,0.4,2.9,6,0.00,,,-99.99,0.0,Linux-Irox,2013-01-18 17:31:00,
2013-01-18 09:46:00,56.3,22.5,29.80,ENE,67,1.3,3.3,6,0.00,,,-99.99,0.0,Linux-Irox,2013-01-18 17:46:00,
2013-01-18 10:01:00,57.6,23.4,29.81,ESE,112,2.7,3.1,5,0.00,,,-99.99,0.0,Linux-Irox,2013-01-18 18:01:00,
2013-01-18 10:16:00,59.7,25.5,29.81,SSW,202,0.7,0.0,5,0.00,,,-99.99,0.0,Linux-Irox,2013-01-18 18:16:00,
2013-01-18 10:31:00,60.8,26.6,29.80,WSW,247,0.4,0.0,5,0.00,,,-99.99,0.0,Linux-Irox,2013-01-18 18:31:00,
2013-01-18 10:46:00,61.5,27.3,29.80,East,90,1.1,5.1,5,0.00,,,-99.99,0.0,Linux-Irox,2013-01-18 18:46:00,
2013-01-18 11:01:00,61.2,27.0,29.78,NE,45,0.2,0.0,5,0.00,,,-99.99,0.0,Linux-Irox,2013-01-18 19:01:00,
2013-01-18 11:16:00,62.4,28.2,29.78,NNE,22,1.3,0.0,5,0.00,,,-99.99,0.0,Linux-Irox,2013-01-18 19:16:00,
2013-01-18 11:31:00,62.2,28.0,29.78,NNE,22,1.3,0.0,5,0.00,,,-99.99,0.0,Linux-Irox,2013-01-18 19:31:00,
2013-01-18 11:46:00,63.9,29.7,29.77,NNE,22,0.4,3.3,5,0.00,,,-99.99,0.0,Linux-Irox,2013-01-18 19:46:00,
2013-01-18 12:01:00,62.8,28.6,29.75,North,0,0.9,4.9,5,0.00,,,-99.99,0.0,Linux-Irox,2013-01-18 20:01:00,
2013-01-18 12:16:00,63.9,29.7,29.75,WSW,247,1.1,0.0,5,0.00,,,-99.99,0.0,Linux-Irox,2013-01-18 20:16:00,
2013-01-18 12:31:00,63.7,29.5,29.75,East,90,1.1,0.0,5,0.00,,,-99.99,0.0,Linux-Irox,2013-01-18 20:31:00,
2013-01-18 12:46:00,63.1,28.9,29.74,SW,225,2.0,2.7,5,0.00,,,-99.99,0.0,Linux-Irox,2013-01-18 20:46:00,
2013-01-18 13:01:00,63.7,29.5,29.73,WSW,247,1.8,8.0,5,0.00,,,-99.99,0.0,Linux-Irox,2013-01-18 21:01:00,
2013-01-18 13:16:00,63.7,29.5,29.73,SE,135,1.3,0.0,5,0.00,,,-99.99,0.0,Linux-Irox,2013-01-18 21:16:00,
2013-01-18 13:31:00,63.7,29.5,29.72,ENE,67,4.5,4.5,5,0.00,,,-99.99,0.0,Linux-Irox,2013-01-18 21:31:00,
2013-01-18 13:46:00,63.7,29.5,29.72,WSW,247,3.8,9.1,5,0.00,,,-99.99,0.0,Linux-Irox,2013-01-18 21:46:00,
2013-01-18 14:01:00,63.7,29.5,29.72,WSW,247,1.8,7.1,5,0.00,,,-99.99,0.0,Linux-Irox,2013-01-18 22:01:00,
2013-01-18 14:16:00,63.5,29.3,29.72,NE,45,3.3,3.3,5,0.00,,,-99.99,0.0,Linux-Irox,2013-01-18 22:16:00,
2013-01-18 14:31:00,63.1,28.9,29.71,NNW,337,2.2,3.3,5,0.00,,,-99.99,0.0,Linux-Irox,2013-01-18 22:31:00,
2013-01-18 14:46:00,62.6,28.4,29.69,SE,135,1.8,0.0,5,0.00,,,-99.99,0.0,Linux-Irox,2013-01-18 22:46:00,
2013-01-18 15:01:00,62.2,28.0,29.67,SSE,157,0.9,0.0,5,0.00,,,-99.99,0.0,Linux-Irox,2013-01-18 23:01:00,
2013-01-18 15:16:00,61.5,27.3,29.67,WSW,247,2.0,4.7,5,0.00,,,-99.99,0.0,Linux-Irox,2013-01-18 23:16:00,
2013-01-18 15:31:00,61.0,26.8,29.67,North,0,1.1,0.0,5,0.00,,,-99.99,0.0,Linux-Irox,2013-01-18 23:31:00,
2013-01-18 15:46:00,60.1,25.9,29.70,SE,135,0.7,3.3,5,0.00,,,-99.99,0.0,Linux-Irox,2013-01-18 23:46:00,
2013-01-18 16:01:00,59.7,25.5,29.69,WSW,247,0.4,0.0,5,0.00,,,-99.99,0.0,Linux-Irox,2013-01-19 00:01:00,
2013-01-18 16:16:00,58.5,24.3,29.69,WSW,247,0.4,0.0,5,0.00,,,-99.99,0.0,Linux-Irox,2013-01-19 00:16:00,
2013-01-18 16:31:00,56.7,22.5,29.69,ENE,67,0.0,0.0,5,0.00,,,-99.99,0.0,Linux-Irox,2013-01-19 00:31:00,
2013-01-18 16:46:00,54.7,20.5,29.70,NNE,22,0.0,0.0,5,0.00,,,-99.99,0.0,Linux-Irox,2013-01-19 00:46:00,
2013-01-18 17:01:00,53.2,20.1,29.70,NNE,22,0.0,0.0,8,0.00,,,-99.99,0.0,Linux-Irox,2013-01-19 01:01:00,
2013-01-18 17:16:00,51.6,18.9,29.70,NNE,22,0.0,0.0,9,0.00,,,-99.99,0.0,Linux-Irox,2013-01-19 01:16:00,
2013-01-18 17:31:00,50.5,17.8,29.70,SE,135,0.0,0.0,9,0.00,,,-99.99,0.0,Linux-Irox,2013-01-19 01:31:00,
2013-01-18 17:46:00,49.3,16.9,29.72,NE,45,0.0,0.0,10,0.00,,,-99.99,0.0,Linux-Irox,2013-01-19 01:46:00,
2013-01-18 18:01:00,47.8,15.4,29.72,NE,45,0.0,0.0,10,0.00,,,-99.99,0.0,Linux-Irox,2013-01-19 02:01:00,
2013-01-18 18:16:00,47.7,15.3,29.72,NNE,22,0.0,0.0,10,0.00,,,-99.99,0.0,Linux-Irox,2013-01-19 02:16:00,
2013-01-18 18:31:00,47.3,14.9,29.72,NNE,22,0.0,0.0,10,0.00,,,-99.99,0.0,Linux-Irox,2013-01-19 02:31:00,
2013-01-18 18:46:00,46.4,14.0,29.72,NNE,22,0.0,0.0,10,0.00,,,-99.99,0.0,Linux-Irox,2013-01-19 02:46:00,
2013-01-18 19:02:00,46.0,14.0,29.72,NE,45,0.0,0.0,11,0.00,,,-99.99,0.0,Linux-Irox,2013-01-19 03:02:00,
2013-01-18 19:16:00,45.3,13.3,29.72,NNE,22,0.0,0.0,11,0.00,,,-99.99,0.0,Linux-Irox,2013-01-19 03:16:00,
2013-01-18 19:31:00,45.0,12.9,29.72,NNW,337,0.0,0.0,11,0.00,,,-99.99,0.0,Linux-Irox,2013-01-19 03:31:00,
2013-01-18 19:46:00,44.8,12.7,29.73,ENE,67,0.0,0.0,11,0.00,,,-99.99,0.0,Linux-Irox,2013-01-19 03:46:00,
2013-01-18 20:01:00,44.6,12.6,29.73,ENE,67,0.0,0.0,11,0.00,,,-99.99,0.0,Linux-Irox,2013-01-19 04:01:00,
2013-01-18 20:16:00,43.5,11.5,29.73,NE,45,0.0,0.0,11,0.00,,,-99.99,0.0,Linux-Irox,2013-01-19 04:16:00,
2013-01-18 20:31:00,44.1,12.7,29.73,NNE,22,0.0,0.0,13,0.00,,,-99.99,0.0,Linux-Irox,2013-01-19 04:31:00,
2013-01-18 20:46:00,44.4,13.1,29.73,NNE,22,0.0,0.0,13,0.00,,,-99.99,0.0,Linux-Irox,2013-01-19 04:46:00,
2013-01-18 21:02:00,43.9,12.6,29.73,NNE,22,0.0,0.0,13,0.00,,,-99.99,0.0,Linux-Irox,2013-01-19 05:02:00,
2013-01-18 21:16:00,42.8,11.5,29.73,ENE,67,0.0,0.0,13,0.00,,,-99.99,0.0,Linux-Irox,2013-01-19 05:16:00,
2013-01-18 21:31:00,43.2,11.8,29.74,NE,45,0.4,3.3,13,0.00,,,-99.99,0.0,Linux-Irox,2013-01-19 05:31:00,